createdAt,value
2023-02-15T00:02:07.364Z,12.10
2023-02-15T00:07:10.938Z,12.00
2023-02-15T00:12:15.370Z,11.90
2023-02-15T00:22:22.400Z,10.10
2023-02-15T00:27:26.236Z,10.60
2023-02-15T00:32:29.638Z,10.40
2023-02-15T00:37:33.154Z,11.80
2023-02-15T00:42:36.770Z,12.10
2023-02-15T00:47:40.316Z,11.30
2023-02-15T00:52:44.007Z,9.30
2023-02-15T00:57:47.420Z,11.40
2023-02-15T01:02:51.038Z,10.10
2023-02-15T01:07:54.747Z,11.20
2023-02-15T01:12:58.584Z,13.20
2023-02-15T01:18:02.201Z,15.80
2023-02-15T01:23:07.561Z,15.50
2023-02-15T01:28:11.691Z,15.20
2023-02-15T01:33:19.235Z,13.10
2023-02-15T01:38:22.613Z,10.30
2023-02-15T01:43:41.867Z,11.10
2023-02-15T01:48:49.199Z,15.70
2023-02-15T01:54:02.852Z,13.80
2023-02-15T01:59:12.985Z,15.70
2023-02-15T02:04:27.805Z,15.00
2023-02-15T02:09:31.743Z,15.70
2023-02-15T02:14:35.859Z,14.40
2023-02-15T02:20:19.002Z,12.80
2023-02-15T02:25:48.321Z,11.90
2023-02-15T02:31:29.683Z,11.40
2023-02-15T02:36:59.355Z,13.20
2023-02-15T02:42:17.414Z,12.60
2023-02-15T02:47:25.378Z,14.00
2023-02-15T02:52:47.079Z,14.40
2023-02-15T02:57:58.783Z,14.80
2023-02-15T03:03:07.746Z,14.10
2023-02-15T03:08:13.495Z,13.60
2023-02-15T03:13:18.135Z,13.30
2023-02-15T03:18:27.081Z,14.50
2023-02-15T03:23:33.569Z,14.60
2023-02-15T03:28:44.254Z,11.90
2023-02-15T03:33:59.244Z,11.90
2023-02-15T03:39:14.633Z,13.70
2023-02-15T03:44:28.500Z,16.30
2023-02-15T03:49:46.244Z,12.70
2023-02-15T03:54:50.877Z,15.20
2023-02-15T04:00:12.932Z,13.10
2023-02-15T04:05:16.902Z,14.20
2023-02-15T04:10:38.903Z,14.30
2023-02-15T04:16:01.634Z,15.70
2023-02-15T04:21:24.235Z,13.40
2023-02-15T04:26:27.844Z,15.30
2023-02-15T04:31:31.330Z,10.10
2023-02-15T04:36:35.081Z,12.50
2023-02-15T04:41:38.599Z,14.20
2023-02-15T04:46:42.109Z,17.30
2023-02-15T04:51:45.625Z,13.10
2023-02-15T04:56:49.137Z,13.10
2023-02-15T05:01:52.557Z,11.60
2023-02-15T05:06:56.275Z,14.10
2023-02-15T05:11:59.688Z,12.00
2023-02-15T05:17:04.450Z,12.10
2023-02-15T05:22:07.947Z,13.00
2023-02-15T05:27:33.280Z,9.90
2023-02-15T05:32:36.832Z,13.50
2023-02-15T05:37:40.409Z,14.80
2023-02-15T05:42:44.031Z,14.30
2023-02-15T05:47:47.655Z,14.00
2023-02-15T05:52:52.517Z,14.40
2023-02-15T05:57:56.217Z,14.20
2023-02-15T06:02:59.732Z,16.40
2023-02-15T06:08:05.848Z,15.80
2023-02-15T06:13:09.429Z,14.80
2023-02-15T06:18:12.909Z,13.90
2023-02-15T06:23:16.974Z,13.80
2023-02-15T06:28:20.590Z,17.10
2023-02-15T06:33:24.623Z,15.50
2023-02-15T06:38:28.135Z,14.90
2023-02-15T06:43:31.765Z,17.40
2023-02-15T06:48:35.365Z,18.20
2023-02-15T06:53:38.982Z,18.30
2023-02-15T06:58:43.553Z,19.90
2023-02-15T07:03:47.795Z,19.90
2023-02-15T07:13:54.789Z,20.50
2023-02-15T07:18:58.191Z,16.90
2023-02-15T07:24:02.118Z,15.50
2023-02-15T07:29:05.735Z,16.90
2023-02-15T07:34:09.150Z,11.70
2023-02-15T07:39:12.767Z,11.30
2023-02-15T07:44:16.895Z,10.70
2023-02-15T07:49:20.415Z,10.70
2023-02-15T07:54:24.426Z,10.80
2023-02-15T07:59:28.573Z,11.20
2023-02-15T08:04:32.496Z,8.50
2023-02-15T08:09:36.013Z,7.20
2023-02-15T08:14:39.628Z,9.70
2023-02-15T08:19:43.250Z,11.70
2023-02-15T08:24:47.898Z,11.80
2023-02-15T08:29:51.427Z,11.20
2023-02-15T08:34:54.925Z,10.20
2023-02-15T08:39:58.443Z,10.10
2023-02-15T08:45:02.276Z,10.10
2023-02-15T08:50:06.560Z,10.60
2023-02-15T09:00:14.073Z,8.90
2023-02-15T09:05:17.755Z,9.00
2023-02-15T09:10:21.603Z,10.20
2023-02-15T09:15:25.098Z,13.40
2023-02-15T09:20:30.043Z,14.80
2023-02-15T09:25:35.510Z,14.10
2023-02-15T09:30:39.052Z,20.50
2023-02-15T09:35:42.634Z,15.80
2023-02-15T09:41:01.803Z,14.10
2023-02-15T09:46:14.080Z,6.60
2023-02-15T09:51:43.151Z,7.00
2023-02-15T09:56:54.452Z,7.90
2023-02-15T10:02:23.978Z,7.70
2023-02-15T10:07:48.384Z,8.60
2023-02-15T10:13:04.095Z,9.20
2023-02-15T10:18:18.153Z,9.60
2023-02-15T10:23:36.515Z,11.10
2023-02-15T10:29:02.875Z,10.30
2023-02-15T10:34:18.624Z,9.30
2023-02-15T10:40:09.904Z,11.30
2023-02-15T10:45:22.430Z,12.80
2023-02-15T10:50:49.804Z,11.90
2023-02-15T10:56:14.756Z,12.70
2023-02-15T11:01:33.547Z,13.60
2023-02-15T11:06:41.108Z,12.80
2023-02-15T11:11:48.424Z,13.10
2023-02-15T11:16:56.545Z,13.40
2023-02-15T11:22:04.247Z,13.40
2023-02-15T11:27:23.580Z,13.30
2023-02-15T11:32:56.332Z,12.70
2023-02-15T11:38:03.651Z,15.40
2023-02-15T11:43:15.038Z,12.70
2023-02-15T11:48:19.174Z,12.30
2023-02-15T11:53:28.833Z,13.30
2023-02-15T11:58:41.979Z,15.80
2023-02-15T12:03:53.772Z,11.80
2023-02-15T12:09:22.538Z,12.70
2023-02-15T12:14:27.124Z,11.80
2023-02-15T12:19:41.214Z,10.90
2023-02-15T12:24:49.106Z,14.40
2023-02-15T12:29:58.192Z,13.50
2023-02-15T12:35:37.710Z,13.30
2023-02-15T12:40:41.432Z,13.30
2023-02-15T12:45:44.947Z,11.80
2023-02-15T12:50:55.826Z,9.90
2023-02-15T12:56:02.455Z,11.50
2023-02-15T13:01:15.012Z,13.40
2023-02-15T13:06:19.813Z,13.30
2023-02-15T13:11:36.318Z,13.20
2023-02-15T13:16:41.224Z,12.80
2023-02-15T13:21:48.469Z,13.80
2023-02-15T13:26:59.057Z,13.70
2023-02-15T13:32:38.329Z,14.90
2023-02-15T13:37:58.717Z,15.30
2023-02-15T13:43:20.461Z,15.70
2023-02-15T13:48:53.261Z,17.50
2023-02-15T13:54:38.455Z,15.40
2023-02-15T14:00:00.116Z,13.10
2023-02-15T14:05:23.551Z,13.30
2023-02-15T14:10:33.035Z,13.60
2023-02-15T14:15:37.773Z,14.50
2023-02-15T14:20:52.551Z,15.00
2023-02-15T14:26:03.349Z,13.20
2023-02-15T14:31:10.618Z,15.70
2023-02-15T14:36:20.820Z,15.00
2023-02-15T14:41:51.462Z,16.10
2023-02-15T14:47:13.620Z,15.90
2023-02-15T14:52:17.240Z,15.80
2023-02-15T14:57:26.609Z,14.60
2023-02-15T15:02:45.464Z,16.70
2023-02-15T15:08:01.069Z,15.90
2023-02-15T15:13:37.351Z,15.80
2023-02-15T15:18:46.379Z,16.10
2023-02-15T15:23:50.422Z,17.20
2023-02-15T15:28:55.060Z,15.40
2023-02-15T15:34:27.962Z,14.70
2023-02-15T15:39:43.356Z,14.20
2023-02-15T15:45:18.517Z,11.20
2023-02-15T15:50:22.409Z,11.70
2023-02-15T15:55:33.432Z,11.20
2023-02-15T16:00:43.909Z,11.80
2023-02-15T16:05:47.424Z,13.80
2023-02-15T16:10:50.837Z,13.50
2023-02-15T16:15:57.508Z,14.30
2023-02-15T16:21:02.888Z,14.30
2023-02-15T16:26:06.196Z,14.30
2023-02-15T16:31:15.624Z,11.60
2023-02-15T16:36:26.335Z,14.30
2023-02-15T16:41:31.506Z,15.70
2023-02-15T16:46:42.145Z,16.10
2023-02-15T16:51:54.809Z,17.60
2023-02-15T16:56:59.138Z,20.00
2023-02-15T17:07:21.848Z,23.70
2023-02-15T17:12:56.386Z,26.90
2023-02-15T17:18:16.687Z,24.60
2023-02-15T17:23:25.628Z,25.90
2023-02-15T17:28:32.299Z,26.00
2023-02-15T17:33:35.833Z,25.30
2023-02-15T17:38:41.171Z,28.50
2023-02-15T17:43:44.631Z,29.70
2023-02-15T17:48:50.802Z,30.20
2023-02-15T17:54:12.949Z,36.40
2023-02-15T17:59:16.555Z,36.40
2023-02-15T18:04:40.636Z,33.30
2023-02-15T18:10:03.422Z,37.40
2023-02-15T18:15:10.866Z,35.50
2023-02-15T18:20:24.899Z,34.20
2023-02-15T18:25:28.620Z,29.50
2023-02-15T18:30:33.709Z,29.70
2023-02-15T18:35:37.380Z,31.30
2023-02-15T18:40:40.792Z,30.80
2023-02-15T18:45:44.521Z,32.50
2023-02-15T18:50:48.338Z,33.40
2023-02-15T18:55:52.470Z,34.30
2023-02-15T19:00:56.808Z,31.70
2023-02-15T19:11:04.963Z,32.20
2023-02-15T19:16:27.772Z,33.80
2023-02-15T19:21:33.010Z,34.30
2023-02-15T19:26:45.694Z,32.90
2023-02-15T19:31:49.542Z,34.50
2023-02-15T19:36:56.854Z,32.20
2023-02-15T19:42:00.319Z,31.30
2023-02-15T19:47:03.982Z,29.80
2023-02-15T19:52:17.779Z,28.90
2023-02-15T19:57:22.072Z,26.80
2023-02-15T20:07:29.199Z,30.30
2023-02-15T20:12:32.756Z,31.70
2023-02-15T20:17:36.232Z,28.10
2023-02-15T20:22:42.662Z,32.60
2023-02-15T20:27:46.334Z,32.20
2023-02-15T20:32:50.572Z,31.50
2023-02-15T20:37:56.763Z,31.10
2023-02-15T20:43:00.782Z,31.00
2023-02-15T20:48:05.002Z,29.90
2023-02-15T20:53:10.264Z,34.10
2023-02-15T20:58:34.767Z,33.00
2023-02-15T21:03:38.311Z,30.30
2023-02-15T21:08:42.215Z,33.60
2023-02-15T21:13:46.145Z,30.10
2023-02-15T21:18:49.502Z,30.30
2023-02-15T21:23:53.919Z,32.00
2023-02-15T21:28:57.408Z,29.10
2023-02-15T21:34:01.934Z,30.00
2023-02-15T21:44:39.688Z,33.30
2023-02-15T21:49:43.514Z,29.30
2023-02-15T21:54:47.032Z,29.20
2023-02-15T21:59:50.548Z,31.30
2023-02-15T22:04:55.899Z,27.90
2023-02-15T22:09:59.621Z,29.10
2023-02-15T22:15:03.752Z,31.50
2023-02-15T22:20:14.837Z,30.10
2023-02-15T22:25:22.282Z,34.80
2023-02-15T22:30:32.775Z,33.20
2023-02-15T22:38:39.335Z,35.60
2023-02-15T22:43:44.895Z,27.90
2023-02-15T22:48:49.438Z,34.00
2023-02-15T22:53:54.108Z,35.80
2023-02-15T22:59:02.062Z,36.90
2023-02-15T23:04:06.096Z,38.10
2023-02-15T23:09:09.638Z,38.20
2023-02-15T23:14:31.794Z,39.00
2023-02-15T23:19:35.307Z,42.30
2023-02-15T23:24:39.872Z,40.30
2023-02-15T23:34:46.679Z,37.60
2023-02-15T23:40:10.363Z,41.80
2023-02-15T23:45:23.627Z,41.50
2023-02-15T23:50:29.876Z,44.60
2023-02-15T23:55:38.645Z,42.70
